sensor_id;sensor_type;location;lat;lon;timestamp;P1;durP1;ratioP1;P2;durP2;ratioP2
36241;SDS011;22283;42.748;12.732;2022-11-14T00:00:30;24.45;;;17.40;;
36241;SDS011;22283;42.748;12.732;2022-11-14T00:05:50;24.10;;;15.15;;
36241;SDS011;22283;42.748;12.732;2022-11-14T00:11:09;21.25;;;15.98;;
36241;SDS011;22283;42.748;12.732;2022-11-14T00:16:28;22.25;;;15.85;;
36241;SDS011;22283;42.748;12.732;2022-11-14T00:21:48;22.98;;;15.60;;
36241;SDS011;22283;42.748;12.732;2022-11-14T00:27:07;20.25;;;14.30;;
36241;SDS011;22283;42.748;12.732;2022-11-14T00:32:26;23.95;;;15.60;;
36241;SDS011;22283;42.748;12.732;2022-11-14T00:37:45;21.95;;;14.07;;
36241;SDS011;22283;42.748;12.732;2022-11-14T00:43:04;22.33;;;14.68;;
36241;SDS011;22283;42.748;12.732;2022-11-14T00:48:24;18.77;;;13.70;;
36241;SDS011;22283;42.748;12.732;2022-11-14T00:53:43;22.05;;;14.73;;
36241;SDS011;22283;42.748;12.732;2022-11-14T00:59:02;18.58;;;13.63;;
36241;SDS011;22283;42.748;12.732;2022-11-14T01:04:21;20.60;;;14.43;;
36241;SDS011;22283;42.748;12.732;2022-11-14T01:09:40;29.42;;;13.93;;
36241;SDS011;22283;42.748;12.732;2022-11-14T01:14:59;20.25;;;13.60;;
36241;SDS011;22283;42.748;12.732;2022-11-14T01:20:19;18.35;;;13.30;;
36241;SDS011;22283;42.748;12.732;2022-11-14T01:25:38;16.45;;;11.98;;
36241;SDS011;22283;42.748;12.732;2022-11-14T01:31:15;18.88;;;13.73;;
36241;SDS011;22283;42.748;12.732;2022-11-14T01:36:37;20.92;;;13.57;;
36241;SDS011;22283;42.748;12.732;2022-11-14T01:41:56;19.77;;;13.90;;
36241;SDS011;22283;42.748;12.732;2022-11-14T01:47:17;21.30;;;14.45;;
36241;SDS011;22283;42.748;12.732;2022-11-14T01:52:39;18.88;;;14.20;;
36241;SDS011;22283;42.748;12.732;2022-11-14T01:57:59;18.65;;;14.52;;
36241;SDS011;22283;42.748;12.732;2022-11-14T02:03:18;17.25;;;13.27;;
36241;SDS011;22283;42.748;12.732;2022-11-14T02:08:38;18.85;;;13.30;;
36241;SDS011;22283;42.748;12.732;2022-11-14T02:13:59;21.92;;;14.00;;
36241;SDS011;22283;42.748;12.732;2022-11-14T02:19:19;19.42;;;13.77;;
36241;SDS011;22283;42.748;12.732;2022-11-14T02:24:38;24.25;;;13.82;;
36241;SDS011;22283;42.748;12.732;2022-11-14T02:30:14;18.70;;;13.48;;
36241;SDS011;22283;42.748;12.732;2022-11-14T02:35:35;21.23;;;15.57;;
36241;SDS011;22283;42.748;12.732;2022-11-14T02:40:55;23.88;;;13.98;;
36241;SDS011;22283;42.748;12.732;2022-11-14T02:46:14;19.80;;;14.50;;
36241;SDS011;22283;42.748;12.732;2022-11-14T02:51:33;25.17;;;15.38;;
36241;SDS011;22283;42.748;12.732;2022-11-14T02:56:52;21.30;;;14.02;;
36241;SDS011;22283;42.748;12.732;2022-11-14T03:02:11;23.20;;;14.25;;
36241;SDS011;22283;42.748;12.732;2022-11-14T03:07:31;22.08;;;14.70;;
36241;SDS011;22283;42.748;12.732;2022-11-14T03:12:54;21.35;;;15.90;;
36241;SDS011;22283;42.748;12.732;2022-11-14T03:18:14;21.05;;;15.85;;
36241;SDS011;22283;42.748;12.732;2022-11-14T03:23:33;24.50;;;16.23;;
36241;SDS011;22283;42.748;12.732;2022-11-14T03:28:52;19.05;;;14.88;;
36241;SDS011;22283;42.748;12.732;2022-11-14T03:34:13;22.20;;;15.35;;
36241;SDS011;22283;42.748;12.732;2022-11-14T03:39:32;18.13;;;14.07;;
36241;SDS011;22283;42.748;12.732;2022-11-14T03:44:51;21.85;;;14.70;;
36241;SDS011;22283;42.748;12.732;2022-11-14T03:50:10;19.80;;;13.70;;
36241;SDS011;22283;42.748;12.732;2022-11-14T03:55:29;21.55;;;13.75;;
36241;SDS011;22283;42.748;12.732;2022-11-14T04:00:49;22.95;;;14.23;;
36241;SDS011;22283;42.748;12.732;2022-11-14T04:06:08;19.85;;;14.57;;
36241;SDS011;22283;42.748;12.732;2022-11-14T04:11:28;24.73;;;14.32;;
36241;SDS011;22283;42.748;12.732;2022-11-14T04:16:47;21.30;;;14.20;;
36241;SDS011;22283;42.748;12.732;2022-11-14T04:22:06;20.95;;;14.35;;
36241;SDS011;22283;42.748;12.732;2022-11-14T04:27:25;20.40;;;14.75;;
36241;SDS011;22283;42.748;12.732;2022-11-14T04:32:44;24.58;;;15.63;;
36241;SDS011;22283;42.748;12.732;2022-11-14T04:38:06;19.67;;;14.40;;
36241;SDS011;22283;42.748;12.732;2022-11-14T04:43:25;19.38;;;15.00;;
36241;SDS011;22283;42.748;12.732;2022-11-14T04:48:44;22.02;;;14.85;;
36241;SDS011;22283;42.748;12.732;2022-11-14T04:54:04;21.60;;;14.75;;
36241;SDS011;22283;42.748;12.732;2022-11-14T04:59:23;25.65;;;15.98;;
36241;SDS011;22283;42.748;12.732;2022-11-14T05:04:43;24.98;;;17.50;;
36241;SDS011;22283;42.748;12.732;2022-11-14T05:10:03;29.83;;;18.77;;
36241;SDS011;22283;42.748;12.732;2022-11-14T05:15:23;27.38;;;19.08;;
36241;SDS011;22283;42.748;12.732;2022-11-14T05:20:42;24.90;;;17.63;;
36241;SDS011;22283;42.748;12.732;2022-11-14T05:26:03;27.98;;;18.83;;
36241;SDS011;22283;42.748;12.732;2022-11-14T05:31:24;22.55;;;16.23;;
36241;SDS011;22283;42.748;12.732;2022-11-14T05:36:43;22.70;;;17.23;;
36241;SDS011;22283;42.748;12.732;2022-11-14T05:42:02;28.20;;;19.38;;
36241;SDS011;22283;42.748;12.732;2022-11-14T05:47:21;24.75;;;19.23;;
36241;SDS011;22283;42.748;12.732;2022-11-14T05:52:41;28.65;;;19.38;;
36241;SDS011;22283;42.748;12.732;2022-11-14T05:58:00;24.15;;;16.88;;
36241;SDS011;22283;42.748;12.732;2022-11-14T06:03:19;25.35;;;18.23;;
36241;SDS011;22283;42.748;12.732;2022-11-14T06:08:39;28.98;;;18.92;;
36241;SDS011;22283;42.748;12.732;2022-11-14T06:13:58;24.50;;;17.73;;
36241;SDS011;22283;42.748;12.732;2022-11-14T06:19:17;25.38;;;18.30;;
36241;SDS011;22283;42.748;12.732;2022-11-14T06:24:36;26.98;;;18.98;;
36241;SDS011;22283;42.748;12.732;2022-11-14T06:29:56;25.05;;;21.25;;
36241;SDS011;22283;42.748;12.732;2022-11-14T06:35:15;32.63;;;21.67;;
36241;SDS011;22283;42.748;12.732;2022-11-14T06:40:34;32.03;;;20.20;;
36241;SDS011;22283;42.748;12.732;2022-11-14T06:45:53;26.88;;;19.75;;
36241;SDS011;22283;42.748;12.732;2022-11-14T06:51:14;26.23;;;19.60;;
36241;SDS011;22283;42.748;12.732;2022-11-14T06:56:34;29.77;;;20.15;;
36241;SDS011;22283;42.748;12.732;2022-11-14T07:01:54;26.73;;;18.67;;
36241;SDS011;22283;42.748;12.732;2022-11-14T07:07:14;26.77;;;18.67;;
36241;SDS011;22283;42.748;12.732;2022-11-14T07:12:33;30.40;;;20.13;;
36241;SDS011;22283;42.748;12.732;2022-11-14T07:17:52;30.48;;;20.17;;
36241;SDS011;22283;42.748;12.732;2022-11-14T07:23:11;37.40;;;21.83;;
36241;SDS011;22283;42.748;12.732;2022-11-14T07:28:31;32.13;;;22.23;;
36241;SDS011;22283;42.748;12.732;2022-11-14T07:33:51;32.60;;;22.30;;
36241;SDS011;22283;42.748;12.732;2022-11-14T07:39:10;28.73;;;21.73;;
36241;SDS011;22283;42.748;12.732;2022-11-14T07:44:29;26.42;;;20.00;;
36241;SDS011;22283;42.748;12.732;2022-11-14T07:49:48;26.83;;;18.60;;
36241;SDS011;22283;42.748;12.732;2022-11-14T07:55:08;29.23;;;21.05;;
36241;SDS011;22283;42.748;12.732;2022-11-14T08:00:27;30.15;;;21.55;;
36241;SDS011;22283;42.748;12.732;2022-11-14T08:05:47;29.88;;;22.25;;
36241;SDS011;22283;42.748;12.732;2022-11-14T08:11:06;30.23;;;21.92;;
36241;SDS011;22283;42.748;12.732;2022-11-14T08:16:26;27.50;;;20.80;;
36241;SDS011;22283;42.748;12.732;2022-11-14T08:21:45;19.30;;;16.48;;
36241;SDS011;22283;42.748;12.732;2022-11-14T08:27:05;18.98;;;14.63;;
36241;SDS011;22283;42.748;12.732;2022-11-14T08:32:24;17.80;;;11.75;;
36241;SDS011;22283;42.748;12.732;2022-11-14T08:37:43;14.88;;;11.27;;
36241;SDS011;22283;42.748;12.732;2022-11-14T08:43:02;14.75;;;11.60;;
36241;SDS011;22283;42.748;12.732;2022-11-14T08:48:21;14.45;;;12.18;;
36241;SDS011;22283;42.748;12.732;2022-11-14T08:53:40;22.35;;;14.73;;
36241;SDS011;22283;42.748;12.732;2022-11-14T08:59:03;15.90;;;13.57;;
36241;SDS011;22283;42.748;12.732;2022-11-14T09:09:42;12.52;;;11.20;;
36241;SDS011;22283;42.748;12.732;2022-11-14T09:15:01;10.75;;;9.65;;
36241;SDS011;22283;42.748;12.732;2022-11-14T09:20:24;15.73;;;11.32;;
36241;SDS011;22283;42.748;12.732;2022-11-14T09:25:43;10.02;;;8.75;;
36241;SDS011;22283;42.748;12.732;2022-11-14T09:31:10;13.40;;;11.10;;
36241;SDS011;22283;42.748;12.732;2022-11-14T09:36:30;14.43;;;11.05;;
36241;SDS011;22283;42.748;12.732;2022-11-14T09:47:39;8.93;;;7.07;;
36241;SDS011;22283;42.748;12.732;2022-11-14T09:53:08;12.57;;;7.70;;
36241;SDS011;22283;42.748;12.732;2022-11-14T09:58:34;14.00;;;10.30;;
36241;SDS011;22283;42.748;12.732;2022-11-14T10:21:26;11.73;;;9.40;;
36241;SDS011;22283;42.748;12.732;2022-11-14T10:27:09;10.88;;;7.95;;
36241;SDS011;22283;42.748;12.732;2022-11-14T10:43:33;12.18;;;10.40;;
36241;SDS011;22283;42.748;12.732;2022-11-14T10:48:57;10.50;;;8.30;;
36241;SDS011;22283;42.748;12.732;2022-11-14T10:59:59;9.60;;;8.00;;
36241;SDS011;22283;42.748;12.732;2022-11-14T11:05:19;9.07;;;7.30;;
36241;SDS011;22283;42.748;12.732;2022-11-14T11:10:44;10.77;;;9.23;;
36241;SDS011;22283;42.748;12.732;2022-11-14T11:16:24;8.45;;;7.30;;
36241;SDS011;22283;42.748;12.732;2022-11-14T11:21:46;9.55;;;8.48;;
36241;SDS011;22283;42.748;12.732;2022-11-14T11:32:40;7.65;;;5.80;;
36241;SDS011;22283;42.748;12.732;2022-11-14T11:37:59;5.97;;;4.40;;
36241;SDS011;22283;42.748;12.732;2022-11-14T11:49:17;19.92;;;13.82;;
36241;SDS011;22283;42.748;12.732;2022-11-14T12:00:20;16.02;;;12.65;;
36241;SDS011;22283;42.748;12.732;2022-11-14T12:11:05;15.35;;;12.27;;
36241;SDS011;22283;42.748;12.732;2022-11-14T12:22:44;14.50;;;10.60;;
36241;SDS011;22283;42.748;12.732;2022-11-14T12:34:23;20.83;;;15.95;;
36241;SDS011;22283;42.748;12.732;2022-11-14T12:40:05;20.70;;;14.50;;
36241;SDS011;22283;42.748;12.732;2022-11-14T12:50:59;13.85;;;8.95;;
36241;SDS011;22283;42.748;12.732;2022-11-14T13:07:17;5.97;;;4.13;;
36241;SDS011;22283;42.748;12.732;2022-11-14T13:12:40;7.68;;;5.65;;
36241;SDS011;22283;42.748;12.732;2022-11-14T13:18:23;3.88;;;1.92;;
36241;SDS011;22283;42.748;12.732;2022-11-14T13:24:03;3.38;;;2.45;;
36241;SDS011;22283;42.748;12.732;2022-11-14T14:04:07;11.38;;;6.82;;
36241;SDS011;22283;42.748;12.732;2022-11-14T14:15:15;8.73;;;6.30;;
36241;SDS011;22283;42.748;12.732;2022-11-14T14:26:25;35.88;;;26.98;;
36241;SDS011;22283;42.748;12.732;2022-11-14T14:32:15;12.43;;;8.45;;
36241;SDS011;22283;42.748;12.732;2022-11-14T14:37:36;10.27;;;8.27;;
36241;SDS011;22283;42.748;12.732;2022-11-14T14:42:55;17.85;;;12.35;;
36241;SDS011;22283;42.748;12.732;2022-11-14T14:48:20;26.85;;;24.20;;
36241;SDS011;22283;42.748;12.732;2022-11-14T14:53:50;16.60;;;13.02;;
36241;SDS011;22283;42.748;12.732;2022-11-14T14:59:15;12.50;;;7.20;;
36241;SDS011;22283;42.748;12.732;2022-11-14T15:04:35;9.32;;;5.97;;
36241;SDS011;22283;42.748;12.732;2022-11-14T15:09:58;8.55;;;7.15;;
36241;SDS011;22283;42.748;12.732;2022-11-14T15:15:20;11.85;;;7.70;;
36241;SDS011;22283;42.748;12.732;2022-11-14T15:20:40;13.32;;;7.28;;
36241;SDS011;22283;42.748;12.732;2022-11-14T15:26:00;12.55;;;8.73;;
36241;SDS011;22283;42.748;12.732;2022-11-14T15:31:22;17.10;;;11.20;;
36241;SDS011;22283;42.748;12.732;2022-11-14T15:42:26;16.75;;;12.30;;
36241;SDS011;22283;42.748;12.732;2022-11-14T15:47:56;19.73;;;13.50;;
36241;SDS011;22283;42.748;12.732;2022-11-14T15:53:24;15.90;;;11.75;;
36241;SDS011;22283;42.748;12.732;2022-11-14T15:58:45;19.45;;;14.18;;
36241;SDS011;22283;42.748;12.732;2022-11-14T16:04:05;15.52;;;12.25;;
36241;SDS011;22283;42.748;12.732;2022-11-14T16:09:31;18.23;;;12.98;;
36241;SDS011;22283;42.748;12.732;2022-11-14T16:14:50;17.95;;;13.75;;
36241;SDS011;22283;42.748;12.732;2022-11-14T16:20:12;31.17;;;24.10;;
36241;SDS011;22283;42.748;12.732;2022-11-14T16:25:36;27.23;;;16.75;;
36241;SDS011;22283;42.748;12.732;2022-11-14T16:30:56;24.30;;;16.67;;
36241;SDS011;22283;42.748;12.732;2022-11-14T16:36:15;36.47;;;25.38;;
36241;SDS011;22283;42.748;12.732;2022-11-14T16:41:37;31.23;;;23.17;;
36241;SDS011;22283;42.748;12.732;2022-11-14T16:46:57;33.00;;;25.73;;
36241;SDS011;22283;42.748;12.732;2022-11-14T16:52:16;18.75;;;13.77;;
36241;SDS011;22283;42.748;12.732;2022-11-14T16:57:38;18.30;;;14.13;;
36241;SDS011;22283;42.748;12.732;2022-11-14T17:02:57;17.67;;;12.48;;
36241;SDS011;22283;42.748;12.732;2022-11-14T17:08:16;16.67;;;12.48;;
36241;SDS011;22283;42.748;12.732;2022-11-14T17:13:36;14.70;;;10.85;;
36241;SDS011;22283;42.748;12.732;2022-11-14T17:18:55;15.48;;;11.40;;
36241;SDS011;22283;42.748;12.732;2022-11-14T17:24:15;15.90;;;11.20;;
36241;SDS011;22283;42.748;12.732;2022-11-14T17:29:34;17.08;;;12.95;;
36241;SDS011;22283;42.748;12.732;2022-11-14T17:34:53;16.55;;;12.82;;
36241;SDS011;22283;42.748;12.732;2022-11-14T17:40:12;19.27;;;13.63;;
36241;SDS011;22283;42.748;12.732;2022-11-14T17:45:32;39.10;;;25.88;;
36241;SDS011;22283;42.748;12.732;2022-11-14T17:50:51;16.63;;;12.02;;
36241;SDS011;22283;42.748;12.732;2022-11-14T17:56:15;23.08;;;11.45;;
36241;SDS011;22283;42.748;12.732;2022-11-14T18:01:37;20.27;;;11.75;;
36241;SDS011;22283;42.748;12.732;2022-11-14T18:06:56;16.45;;;10.90;;
36241;SDS011;22283;42.748;12.732;2022-11-14T18:12:15;17.17;;;11.43;;
36241;SDS011;22283;42.748;12.732;2022-11-14T18:17:35;18.42;;;9.82;;
36241;SDS011;22283;42.748;12.732;2022-11-14T18:22:54;16.38;;;10.50;;
36241;SDS011;22283;42.748;12.732;2022-11-14T18:28:13;19.95;;;12.45;;
36241;SDS011;22283;42.748;12.732;2022-11-14T18:33:32;20.08;;;13.85;;
36241;SDS011;22283;42.748;12.732;2022-11-14T18:38:54;34.95;;;19.13;;
36241;SDS011;22283;42.748;12.732;2022-11-14T18:44:14;29.38;;;17.08;;
36241;SDS011;22283;42.748;12.732;2022-11-14T18:49:33;34.35;;;18.08;;
36241;SDS011;22283;42.748;12.732;2022-11-14T18:54:52;29.83;;;18.38;;
36241;SDS011;22283;42.748;12.732;2022-11-14T19:00:12;35.92;;;22.20;;
36241;SDS011;22283;42.748;12.732;2022-11-14T19:05:34;35.15;;;23.02;;
36241;SDS011;22283;42.748;12.732;2022-11-14T19:10:58;100.07;;;70.33;;
36241;SDS011;22283;42.748;12.732;2022-11-14T19:16:19;134.35;;;77.80;;
36241;SDS011;22283;42.748;12.732;2022-11-14T19:21:39;35.25;;;24.20;;
36241;SDS011;22283;42.748;12.732;2022-11-14T19:26:58;20.70;;;12.85;;
36241;SDS011;22283;42.748;12.732;2022-11-14T19:32:18;17.58;;;9.65;;
36241;SDS011;22283;42.748;12.732;2022-11-14T19:37:37;12.40;;;8.50;;
36241;SDS011;22283;42.748;12.732;2022-11-14T19:42:56;18.20;;;10.73;;
36241;SDS011;22283;42.748;12.732;2022-11-14T19:53:39;12.93;;;10.02;;
36241;SDS011;22283;42.748;12.732;2022-11-14T19:58:59;13.77;;;9.00;;
36241;SDS011;22283;42.748;12.732;2022-11-14T20:04:20;14.05;;;8.63;;
36241;SDS011;22283;42.748;12.732;2022-11-14T20:09:39;13.52;;;8.18;;
36241;SDS011;22283;42.748;12.732;2022-11-14T20:14:58;13.90;;;7.50;;
36241;SDS011;22283;42.748;12.732;2022-11-14T20:20:17;11.68;;;7.80;;
36241;SDS011;22283;42.748;12.732;2022-11-14T20:25:37;14.98;;;6.45;;
36241;SDS011;22283;42.748;12.732;2022-11-14T20:31:04;14.95;;;6.80;;
36241;SDS011;22283;42.748;12.732;2022-11-14T20:36:25;15.50;;;9.68;;
36241;SDS011;22283;42.748;12.732;2022-11-14T20:41:45;11.98;;;6.93;;
36241;SDS011;22283;42.748;12.732;2022-11-14T20:47:04;9.23;;;5.85;;
36241;SDS011;22283;42.748;12.732;2022-11-14T20:52:24;20.65;;;13.25;;
36241;SDS011;22283;42.748;12.732;2022-11-14T20:57:43;27.20;;;16.00;;
36241;SDS011;22283;42.748;12.732;2022-11-14T21:03:03;19.55;;;11.48;;
36241;SDS011;22283;42.748;12.732;2022-11-14T21:08:22;13.32;;;8.10;;
36241;SDS011;22283;42.748;12.732;2022-11-14T21:13:41;19.70;;;12.38;;
36241;SDS011;22283;42.748;12.732;2022-11-14T21:19:15;25.30;;;15.70;;
36241;SDS011;22283;42.748;12.732;2022-11-14T21:24:34;22.23;;;15.20;;
36241;SDS011;22283;42.748;12.732;2022-11-14T21:29:53;15.50;;;8.95;;
36241;SDS011;22283;42.748;12.732;2022-11-14T21:35:13;14.75;;;10.13;;
36241;SDS011;22283;42.748;12.732;2022-11-14T21:40:32;11.57;;;7.97;;
36241;SDS011;22283;42.748;12.732;2022-11-14T21:45:55;10.50;;;6.53;;
36241;SDS011;22283;42.748;12.732;2022-11-14T21:51:17;10.15;;;5.47;;
36241;SDS011;22283;42.748;12.732;2022-11-14T21:56:38;9.23;;;5.57;;
36241;SDS011;22283;42.748;12.732;2022-11-14T22:01:57;8.75;;;5.25;;
36241;SDS011;22283;42.748;12.732;2022-11-14T22:07:39;10.75;;;5.63;;
36241;SDS011;22283;42.748;12.732;2022-11-14T22:13:01;12.40;;;6.28;;
36241;SDS011;22283;42.748;12.732;2022-11-14T22:18:20;13.57;;;7.95;;
36241;SDS011;22283;42.748;12.732;2022-11-14T22:23:38;13.15;;;7.30;;
36241;SDS011;22283;42.748;12.732;2022-11-14T22:28:58;10.40;;;6.15;;
36241;SDS011;22283;42.748;12.732;2022-11-14T22:34:17;5.28;;;3.55;;
36241;SDS011;22283;42.748;12.732;2022-11-14T22:39:36;7.95;;;4.22;;
36241;SDS011;22283;42.748;12.732;2022-11-14T22:44:55;7.28;;;4.35;;
36241;SDS011;22283;42.748;12.732;2022-11-14T22:50:14;8.65;;;4.63;;
36241;SDS011;22283;42.748;12.732;2022-11-14T22:55:33;10.00;;;4.80;;
36241;SDS011;22283;42.748;12.732;2022-11-14T23:00:52;6.78;;;3.78;;
36241;SDS011;22283;42.748;12.732;2022-11-14T23:06:13;5.88;;;3.78;;
36241;SDS011;22283;42.748;12.732;2022-11-14T23:11:38;8.82;;;4.90;;
36241;SDS011;22283;42.748;12.732;2022-11-14T23:16:57;14.57;;;5.97;;
36241;SDS011;22283;42.748;12.732;2022-11-14T23:22:16;10.20;;;7.28;;
36241;SDS011;22283;42.748;12.732;2022-11-14T23:27:35;12.65;;;7.22;;
36241;SDS011;22283;42.748;12.732;2022-11-14T23:32:55;14.00;;;8.02;;
36241;SDS011;22283;42.748;12.732;2022-11-14T23:38:14;5.75;;;3.60;;
36241;SDS011;22283;42.748;12.732;2022-11-14T23:43:33;8.07;;;4.47;;
36241;SDS011;22283;42.748;12.732;2022-11-14T23:48:52;6.95;;;3.50;;
36241;SDS011;22283;42.748;12.732;2022-11-14T23:54:12;5.72;;;3.42;;
36241;SDS011;22283;42.748;12.732;2022-11-14T23:59:31;7.25;;;4.22;;
